createdAt,value
2022-12-01T00:00:37.820Z,1014
2022-12-01T00:01:38.905Z,1014
2022-12-01T00:02:39.904Z,1014
2022-12-01T00:03:40.758Z,1014
2022-12-01T00:04:41.797Z,1014
2022-12-01T00:05:43.871Z,1014
2022-12-01T00:06:45.807Z,1014
2022-12-01T00:07:46.839Z,1014
2022-12-01T00:08:47.799Z,1014
2022-12-01T00:09:49.963Z,1014
2022-12-01T00:10:51.819Z,1014
2022-12-01T00:11:52.797Z,1014
2022-12-01T00:12:53.736Z,1014
2022-12-01T00:13:54.743Z,1014
2022-12-01T00:14:55.858Z,1014
2022-12-01T00:15:57.817Z,1014
2022-12-01T00:16:59.889Z,1014
2022-12-01T00:18:01.778Z,1014
2022-12-01T00:19:03.865Z,1014
2022-12-01T00:20:05.862Z,1014
2022-12-01T00:21:07.749Z,1014
2022-12-01T00:22:08.750Z,1014
2022-12-01T00:23:09.784Z,1014.1
2022-12-01T00:24:10.758Z,1014
2022-12-01T00:25:11.798Z,1014.1
2022-12-01T00:26:13.819Z,1014
2022-12-01T00:27:15.840Z,1014
2022-12-01T00:28:16.779Z,1014.1
2022-12-01T00:29:17.771Z,1014
2022-12-01T00:30:18.797Z,1014
2022-12-01T00:31:19.911Z,1014
2022-12-01T00:32:21.818Z,1014
2022-12-01T00:33:23.767Z,1014
2022-12-01T00:34:24.778Z,1014
2022-12-01T00:35:25.797Z,1014
2022-12-01T00:36:27.041Z,1014
2022-12-01T00:37:28.784Z,1014
2022-12-01T00:38:29.817Z,1014
2022-12-01T00:39:30.767Z,1014
2022-12-01T00:40:31.800Z,1013.4
2022-12-01T00:41:32.877Z,1013.8
2022-12-01T00:42:33.817Z,1013.3
2022-12-01T00:43:34.860Z,1013.8
2022-12-01T00:44:36.818Z,1013.7
2022-12-01T00:45:39.007Z,1013.9
2022-12-01T00:46:40.785Z,1014
2022-12-01T00:47:41.758Z,1013.9
2022-12-01T00:48:42.818Z,1013.9
2022-12-01T00:49:44.818Z,1013.9
2022-12-01T00:50:46.840Z,1013.2
2022-12-01T00:51:48.859Z,1013.8
2022-12-01T00:52:50.927Z,1013.9
2022-12-01T00:53:52.769Z,1014
2022-12-01T00:54:53.743Z,1013.9
2022-12-01T00:55:54.820Z,1014
2022-12-01T00:56:55.739Z,1013.9
2022-12-01T00:57:56.742Z,1014
2022-12-01T00:58:57.758Z,1014
2022-12-01T00:59:58.781Z,1013.9
2022-12-01T01:01:00.013Z,1013.9
2022-12-01T01:02:01.929Z,1014
2022-12-01T01:03:03.839Z,1014
2022-12-01T01:04:04.797Z,1013.9
2022-12-01T01:05:05.887Z,1013.9
2022-12-01T01:06:07.825Z,1014
2022-12-01T01:07:09.857Z,1014
2022-12-01T01:08:11.800Z,1013.9
2022-12-01T01:09:13.877Z,1013.9
2022-12-01T01:10:15.823Z,1013.9
2022-12-01T01:11:17.863Z,1013.9
2022-12-01T01:12:18.797Z,1013.9
2022-12-01T01:13:19.799Z,1013.9
2022-12-01T01:14:20.866Z,1013.9
2022-12-01T01:15:22.998Z,1013.9
2022-12-01T01:16:24.900Z,1013.9
2022-12-01T01:17:25.813Z,1013.9
2022-12-01T01:18:26.803Z,1013.9
2022-12-01T01:19:27.819Z,1013.9
2022-12-01T01:20:28.757Z,1013.9
2022-12-01T01:21:29.838Z,1013.9
2022-12-01T01:22:30.860Z,1013.9
2022-12-01T01:23:31.845Z,1013.9
2022-12-01T01:24:32.759Z,1013.9
2022-12-01T01:25:33.818Z,1013.5
2022-12-01T01:26:34.798Z,1013.3
2022-12-01T01:27:35.819Z,1013.7
2022-12-01T01:28:36.841Z,1013.8
2022-12-01T01:29:37.778Z,1013.8
2022-12-01T01:30:38.983Z,1013.8
2022-12-01T01:31:40.838Z,1013.8
2022-12-01T01:32:42.978Z,1013.8
2022-12-01T01:33:44.918Z,1013.8
2022-12-01T01:34:46.878Z,1013.7
2022-12-01T01:35:47.798Z,1013.8
2022-12-01T01:36:48.840Z,1013.8
2022-12-01T01:37:50.041Z,1013.8
2022-12-01T01:38:52.043Z,1013.8
2022-12-01T01:39:54.137Z,1013.8
2022-12-01T01:40:55.838Z,1013.7
2022-12-01T01:41:56.794Z,1013.7
2022-12-01T01:42:58.937Z,1013.7
2022-12-01T01:44:00.938Z,1013.7
2022-12-01T01:45:02.935Z,1013.7
2022-12-01T01:46:04.982Z,1013.7
2022-12-01T01:47:06.874Z,1013.7
2022-12-01T01:48:08.858Z,1013.7
2022-12-01T01:49:09.820Z,1013.6
2022-12-01T01:50:10.908Z,1013.7
2022-12-01T01:51:13.282Z,1013.7
2022-12-01T01:52:14.839Z,1013.7
2022-12-01T01:53:16.999Z,1013.7
2022-12-01T01:54:18.914Z,1013.7
2022-12-01T01:55:20.818Z,1013.3
2022-12-01T01:56:21.847Z,1013.6
2022-12-01T01:57:22.904Z,1013.8
2022-12-01T01:58:24.897Z,1013.8
2022-12-01T01:59:26.796Z,1013.8
2022-12-01T02:00:28.878Z,1013.7
2022-12-01T02:01:31.032Z,1013.7
2022-12-01T02:02:33.502Z,1013.7
2022-12-01T02:07:00.914Z,1013.5
2022-12-01T02:08:02.919Z,1013.5
2022-12-01T02:09:03.833Z,1013.5
2022-12-01T02:10:04.896Z,1013.6
2022-12-01T02:11:05.933Z,1013.5
2022-12-01T02:12:07.782Z,1013.5
2022-12-01T02:13:08.858Z,1013.5
2022-12-01T02:14:09.835Z,1013.4
2022-12-01T02:15:11.092Z,1013.4
2022-12-01T02:16:13.295Z,1013.4
2022-12-01T02:17:14.870Z,1013.5
2022-12-01T02:18:16.853Z,1013.4
2022-12-01T02:19:17.852Z,1013.5
2022-12-01T02:20:19.809Z,1013.5
2022-12-01T02:21:20.933Z,1013.5
2022-12-01T02:22:22.908Z,1013.5
2022-12-01T02:23:24.783Z,1013.5
2022-12-01T02:24:25.832Z,1013.5
2022-12-01T02:25:26.841Z,1013.5
2022-12-01T02:26:27.892Z,1013.4
2022-12-01T02:27:29.893Z,1013.5
2022-12-01T02:28:31.854Z,1013.5
2022-12-01T02:29:32.912Z,1013.5
2022-12-01T02:30:34.890Z,1013.5
2022-12-01T02:31:35.861Z,1013.5
2022-12-01T02:32:36.879Z,1013.5
2022-12-01T02:33:37.940Z,1013.5
2022-12-01T02:34:39.881Z,1013.5
2022-12-01T02:35:40.875Z,1013.4
2022-12-01T02:36:41.830Z,1013.5
2022-12-01T02:37:42.812Z,1013.5
2022-12-01T02:38:44.854Z,1012.7
2022-12-01T02:39:46.022Z,1013.3
2022-12-01T02:40:47.961Z,1013.4
2022-12-01T02:41:48.852Z,1013.4
2022-12-01T02:42:49.880Z,1013.4
2022-12-01T02:43:51.835Z,1013.4
2022-12-01T02:44:52.792Z,1013.4
2022-12-01T02:45:54.126Z,1013.4
2022-12-01T02:46:56.173Z,1013.5
2022-12-01T02:47:58.455Z,1013.4
2022-12-01T02:49:00.061Z,1013.5
2022-12-01T02:50:02.051Z,1013.4
2022-12-01T02:51:03.902Z,1013.4
2022-12-01T02:52:05.910Z,1013.4
2022-12-01T02:53:06.892Z,1013.4
2022-12-01T02:54:08.835Z,1013.4
2022-12-01T02:55:09.872Z,1013.4
2022-12-01T02:56:10.849Z,1013.4
2022-12-01T02:57:11.852Z,1013.4
2022-12-01T02:58:12.832Z,1013.4
2022-12-01T02:59:13.813Z,1012.7
2022-12-01T03:00:14.913Z,1013.2
2022-12-01T03:01:15.973Z,1013.3
2022-12-01T03:02:17.943Z,1013.3
2022-12-01T03:03:18.833Z,1013.3
2022-12-01T03:04:19.893Z,1013.3
2022-12-01T03:05:20.900Z,1013.3
2022-12-01T03:06:22.853Z,1013.4
2022-12-01T03:07:23.997Z,1013.3
2022-12-01T03:08:25.880Z,1013.3
2022-12-01T03:09:26.883Z,1013.3
2022-12-01T03:10:27.897Z,1013.3
2022-12-01T03:11:28.857Z,1013.3
2022-12-01T03:12:29.852Z,1013.3
2022-12-01T03:13:30.952Z,1013.2
2022-12-01T03:14:32.955Z,1013.2
2022-12-01T03:15:34.995Z,1013.3
2022-12-01T03:16:36.872Z,1013.2
2022-12-01T03:17:37.873Z,1013.2
2022-12-01T03:18:38.814Z,1013.2
2022-12-01T03:19:39.862Z,1013.2
2022-12-01T03:20:41.442Z,1013.2
2022-12-01T03:21:42.913Z,1013.2
2022-12-01T03:22:44.312Z,1013.2
2022-12-01T03:23:45.931Z,1013.2
2022-12-01T03:24:47.912Z,1013.2
2022-12-01T03:25:48.853Z,1013.2
2022-12-01T03:26:49.989Z,1013.3
2022-12-01T03:28:19.603Z,1013.2
2022-12-01T03:28:52.839Z,1013.3
2022-12-01T03:29:53.832Z,1013.3
2022-12-01T03:30:54.875Z,1013.2
2022-12-01T03:31:55.893Z,1013.2
2022-12-01T03:32:56.842Z,1013.2
2022-12-01T03:33:57.852Z,1013.2
2022-12-01T03:34:58.892Z,1013.2
2022-12-01T03:36:01.012Z,1013.2
2022-12-01T03:37:02.864Z,1013.2
2022-12-01T03:38:04.854Z,1013.2
2022-12-01T03:39:06.892Z,1013.3
2022-12-01T03:40:08.874Z,1013.2
2022-12-01T03:41:09.912Z,1013.2
2022-12-01T03:42:10.902Z,1013.2
2022-12-01T03:43:11.857Z,1013.2
2022-12-01T03:44:12.913Z,1013.2
2022-12-01T03:45:13.934Z,1013.2
2022-12-01T03:46:15.906Z,1013.2
2022-12-01T03:47:16.952Z,1013.2
2022-12-01T03:48:18.853Z,1013.3
2022-12-01T03:49:19.894Z,1013.2
2022-12-01T03:50:20.832Z,1013.2
2022-12-01T03:51:21.922Z,1013.2
2022-12-01T03:52:22.893Z,1013.2
2022-12-01T03:53:23.883Z,1013.2
2022-12-01T03:54:24.897Z,1013.2
2022-12-01T03:55:25.860Z,1013.2
2022-12-01T03:56:26.893Z,1013.2
2022-12-01T03:57:28.962Z,1013.2
2022-12-01T03:58:30.892Z,1013.1
2022-12-01T03:59:32.873Z,1013.2
2022-12-01T04:00:33.915Z,1013.2
2022-12-01T04:01:34.945Z,1013.2
2022-12-01T04:02:35.981Z,1013.2
2022-12-01T04:03:37.912Z,1013.2
2022-12-01T04:04:39.892Z,1013.2
2022-12-01T04:05:41.894Z,1013.2
2022-12-01T04:06:42.913Z,1013.2
2022-12-01T04:07:43.918Z,1013.2
2022-12-01T04:08:45.172Z,1013.2
2022-12-01T04:09:47.181Z,1013.1
2022-12-01T04:10:47.857Z,1013.3
2022-12-01T04:11:48.853Z,1013.2
2022-12-01T04:12:49.937Z,1013.2
2022-12-01T04:13:50.836Z,1013.3
2022-12-01T04:14:51.892Z,1013.3
2022-12-01T04:15:52.951Z,1013.2
2022-12-01T04:16:53.893Z,1013.2
2022-12-01T04:17:54.912Z,1013.2
2022-12-01T04:18:55.893Z,1013.2
2022-12-01T04:19:56.929Z,1013.2
2022-12-01T04:20:57.893Z,1013.2
2022-12-01T04:21:58.893Z,1013.2
2022-12-01T04:23:00.953Z,1013.2
2022-12-01T04:24:01.927Z,1013.3
2022-12-01T04:25:02.913Z,1013.3
2022-12-01T04:26:03.852Z,1013.3
2022-12-01T04:27:04.852Z,1013.3
2022-12-01T04:28:05.925Z,1013.2
2022-12-01T04:29:06.894Z,1013.2
2022-12-01T04:30:08.165Z,1013.2
2022-12-01T04:31:09.982Z,1013.2
2022-12-01T04:32:11.854Z,1013.2
2022-12-01T04:33:12.953Z,1013.3
2022-12-01T04:34:14.871Z,1013.3
2022-12-01T04:35:15.902Z,1013.3
2022-12-01T04:36:16.852Z,1013.2
2022-12-01T04:37:18.033Z,1012.5
2022-12-01T04:38:19.897Z,1013
2022-12-01T04:39:20.917Z,1012.5
2022-12-01T04:40:21.902Z,1013
2022-12-01T04:41:22.893Z,1013.2
2022-12-01T04:42:23.913Z,1013.2
2022-12-01T04:43:25.004Z,1013.2
2022-12-01T04:44:31.560Z,1013.3
2022-12-01T04:45:28.132Z,1013.3
2022-12-01T04:46:29.963Z,1013.3
2022-12-01T04:47:31.907Z,1013.3
2022-12-01T04:48:34.053Z,1013.4
2022-12-01T04:49:35.933Z,1012.7
2022-12-01T04:50:37.932Z,1013.2
2022-12-01T04:51:38.914Z,1013.3
2022-12-01T04:52:39.874Z,1013.4
2022-12-01T04:53:40.961Z,1013.3
2022-12-01T04:54:42.914Z,1013.3
2022-12-01T04:55:43.917Z,1013.4
2022-12-01T04:56:45.972Z,1013
2022-12-01T04:57:47.894Z,1013.2
2022-12-01T04:58:48.944Z,1013.3
2022-12-01T04:59:50.162Z,1013.4
2022-12-01T05:00:51.084Z,1013.5
2022-12-01T05:01:52.981Z,1013.4
2022-12-01T05:02:53.873Z,1013.3
2022-12-01T05:03:54.956Z,1013.3
2022-12-01T05:04:56.913Z,1013.3
2022-12-01T05:05:57.885Z,1013.3
2022-12-01T05:06:58.915Z,1013.3
2022-12-01T05:07:59.933Z,1013.3
2022-12-01T05:09:02.036Z,1013.3
2022-12-01T05:10:03.992Z,1013.3
2022-12-01T05:11:05.974Z,1013.3
2022-12-01T05:12:07.892Z,1013.3
2022-12-01T05:13:08.940Z,1013.3
2022-12-01T05:14:10.294Z,1013.3
2022-12-01T05:15:11.973Z,1013.3
2022-12-01T05:16:13.985Z,1013.3
2022-12-01T05:17:15.952Z,1013.4
2022-12-01T05:18:17.979Z,1013.4
2022-12-01T05:19:18.936Z,1013.4
2022-12-01T05:20:19.915Z,1013.4
2022-12-01T05:21:20.933Z,1013.4
2022-12-01T05:22:36.628Z,1013.4
2022-12-01T05:23:22.912Z,1013.4
2022-12-01T05:24:23.933Z,1013.4
2022-12-01T05:25:24.893Z,1013.4
2022-12-01T05:26:25.874Z,1013.4
2022-12-01T05:27:26.871Z,1013.4
2022-12-01T05:28:27.917Z,1013.3
2022-12-01T05:29:30.056Z,1013.3
2022-12-01T05:30:32.054Z,1013.3
2022-12-01T05:31:34.004Z,1012.8
2022-12-01T05:32:36.023Z,1013.2
2022-12-01T05:33:37.933Z,1013.4
2022-12-01T05:34:38.872Z,1013.4
2022-12-01T05:35:39.949Z,1013.4
2022-12-01T05:36:42.076Z,1013.3
2022-12-01T05:37:43.895Z,1013.4
2022-12-01T05:38:45.922Z,1013.4
2022-12-01T05:39:48.580Z,1013.3
2022-12-01T05:40:49.961Z,1013.3
2022-12-01T05:41:50.932Z,1013.3
2022-12-01T05:42:51.933Z,1013.3
2022-12-01T05:43:52.903Z,1013.3
2022-12-01T05:44:53.962Z,1013.3
2022-12-01T05:45:54.958Z,1013.3
2022-12-01T05:46:55.954Z,1013.4
2022-12-01T05:47:56.868Z,1013.3
2022-12-01T05:48:57.916Z,1013.3
2022-12-01T05:50:03.716Z,1013.3
2022-12-01T05:51:00.962Z,1013.3
2022-12-01T05:52:02.973Z,1013.3
2022-12-01T05:53:05.012Z,1013.4
2022-12-01T05:54:07.053Z,1013.4
2022-12-01T05:55:08.913Z,1013.4
2022-12-01T05:56:09.972Z,1013.4
2022-12-01T05:57:11.976Z,1013.4
2022-12-01T05:58:13.928Z,1013.4
2022-12-01T05:59:15.974Z,1013.4
2022-12-01T06:00:18.096Z,1013.6
2022-12-01T06:01:19.895Z,1013.5
2022-12-01T06:02:21.007Z,1013.4
2022-12-01T06:03:22.002Z,1013.4
2022-12-01T06:04:23.937Z,1013.4
2022-12-01T06:05:24.913Z,1013.4
2022-12-01T06:06:25.974Z,1013.4
2022-12-01T06:07:28.151Z,1013.4
2022-12-01T06:08:30.074Z,1013.4
2022-12-01T06:09:31.982Z,1013.5
2022-12-01T06:10:33.993Z,1013.4
2022-12-01T06:11:35.885Z,1013.6
2022-12-01T06:12:37.232Z,1013.5
2022-12-01T06:13:38.955Z,1013.4
2022-12-01T06:14:39.941Z,1013.4
2022-12-01T06:15:40.981Z,1013.4
2022-12-01T06:16:42.018Z,1013.5
2022-12-01T06:17:45.113Z,1013.5
2022-12-01T06:18:47.052Z,1013.5
2022-12-01T06:19:49.244Z,1013.5
2022-12-01T06:20:50.991Z,1013.4
2022-12-01T06:21:52.932Z,1013.4
2022-12-01T06:22:54.935Z,1013.4
2022-12-01T06:23:55.993Z,1013.4
2022-12-01T06:24:57.986Z,1013.4
2022-12-01T06:25:59.932Z,1013.4
2022-12-01T06:27:00.953Z,1013.4
2022-12-01T06:28:02.156Z,1013.4
2022-12-01T06:29:04.005Z,1013.4
2022-12-01T06:30:06.078Z,1012.8
2022-12-01T06:31:07.957Z,1013.3
2022-12-01T06:32:09.145Z,1013.4
2022-12-01T06:33:10.012Z,1013.4
2022-12-01T06:34:12.013Z,1013.3
2022-12-01T06:35:13.992Z,1013.4
2022-12-01T06:36:15.973Z,1013.4
2022-12-01T06:37:18.296Z,1013.5
2022-12-01T06:38:20.182Z,1013.5
2022-12-01T06:39:22.774Z,1013.4
2022-12-01T06:40:23.949Z,1013.5
2022-12-01T06:41:26.195Z,1013.5
2022-12-01T06:42:28.395Z,1013.5
2022-12-01T06:43:30.593Z,1013.5
2022-12-01T06:44:31.993Z,1013.5
2022-12-01T06:45:33.724Z,1013.5
2022-12-01T06:46:35.144Z,1013.5
2022-12-01T06:47:37.072Z,1013.4
2022-12-01T06:48:38.994Z,1013.4
2022-12-01T06:49:39.936Z,1013.4
2022-12-01T06:50:41.973Z,1013.4
2022-12-01T06:51:42.974Z,1012.7
2022-12-01T06:52:45.644Z,1013.3
2022-12-01T06:53:46.936Z,1013.4
2022-12-01T06:54:47.954Z,1013.4
2022-12-01T06:55:48.965Z,1013.5
2022-12-01T06:56:49.893Z,1013.4
2022-12-01T06:57:51.414Z,1013.5
2022-12-01T06:58:52.932Z,1013.4
2022-12-01T06:59:54.024Z,1013.4
2022-12-01T07:00:55.997Z,1013.4
2022-12-01T07:01:57.137Z,1013.5
2022-12-01T07:02:59.074Z,1013.4
2022-12-01T07:04:00.974Z,1013.4
2022-12-01T07:05:01.982Z,1013.5
2022-12-01T07:06:03.015Z,1013.5
2022-12-01T07:07:04.142Z,1013.5
2022-12-01T07:08:06.029Z,1013.5
2022-12-01T07:09:07.204Z,1013.5
2022-12-01T07:10:09.615Z,1013.6
2022-12-01T07:11:11.362Z,1013.5
2022-12-01T07:12:12.993Z,1013.5
2022-12-01T07:13:14.016Z,1013.4
2022-12-01T07:14:15.992Z,1013.5
2022-12-01T07:15:17.933Z,1013.6
2022-12-01T07:16:19.017Z,1013.5
2022-12-01T07:17:20.021Z,1013.6
2022-12-01T07:18:21.013Z,1013.7
2022-12-01T07:19:22.975Z,1013.7
2022-12-01T07:20:24.414Z,1013.7
2022-12-01T07:21:26.219Z,1013.6
2022-12-01T07:22:32.534Z,1013.7
2022-12-01T07:23:29.992Z,1013.7
2022-12-01T07:24:30.974Z,1013.7
2022-12-01T07:25:31.935Z,1013.7
2022-12-01T07:26:33.134Z,1013.7
2022-12-01T07:27:35.721Z,1013.7
2022-12-01T07:28:37.120Z,1013.7
2022-12-01T07:29:38.954Z,1013.7
2022-12-01T07:30:41.060Z,1013.6
2022-12-01T07:31:43.501Z,1013.7
2022-12-01T07:32:45.121Z,1013.7
2022-12-01T07:33:46.971Z,1013.6
2022-12-01T07:34:47.993Z,1013.6
2022-12-01T07:35:49.013Z,1013.7
2022-12-01T07:36:50.514Z,1013.7
2022-12-01T07:37:52.093Z,1013.6
2022-12-01T07:38:54.689Z,1013.6
2022-12-01T07:39:56.021Z,1013.7
2022-12-01T07:40:56.993Z,1013.7
2022-12-01T07:41:57.993Z,1013.7
2022-12-01T07:42:59.073Z,1013.7
2022-12-01T07:44:01.613Z,1013.6
2022-12-01T07:45:03.338Z,1013.7
2022-12-01T07:46:05.320Z,1013.7
2022-12-01T07:47:06.961Z,1013.7
2022-12-01T07:48:08.060Z,1013.7
2022-12-01T07:49:09.010Z,1013.7
2022-12-01T07:50:10.954Z,1013.7
2022-12-01T07:51:12.034Z,1013.7
2022-12-01T07:52:13.994Z,1013.6
2022-12-01T07:53:16.654Z,1013.7
2022-12-01T07:54:18.453Z,1013.7
2022-12-01T07:55:19.974Z,1013.7
2022-12-01T07:56:21.040Z,1013.7
2022-12-01T07:57:22.053Z,1013.7
2022-12-01T07:58:22.994Z,1013.7
2022-12-01T07:59:24.022Z,1013.7
2022-12-01T08:00:25.033Z,1013.1
2022-12-01T08:01:25.991Z,1013.5
2022-12-01T08:02:27.082Z,1013.7
2022-12-01T08:03:29.036Z,1013.7
2022-12-01T08:04:29.973Z,1013.8
2022-12-01T08:05:31.353Z,1013.8
2022-12-01T08:06:33.253Z,1013.8
2022-12-01T08:07:35.062Z,1013.8
2022-12-01T08:08:36.192Z,1013.8
2022-12-01T08:09:38.073Z,1013.8
2022-12-01T08:10:40.269Z,1013.8
2022-12-01T08:11:42.052Z,1013.7
2022-12-01T08:12:44.270Z,1013.8
2022-12-01T08:13:46.795Z,1013.7
2022-12-01T08:14:48.173Z,1013.7
2022-12-01T08:15:50.273Z,1013.7
2022-12-01T08:16:51.975Z,1013.7
2022-12-01T08:17:53.074Z,1013.7
2022-12-01T08:18:55.061Z,1013.7
2022-12-01T08:19:56.990Z,1013.7
2022-12-01T08:20:57.989Z,1013.6
2022-12-01T08:21:58.941Z,1013.7
2022-12-01T08:23:00.013Z,1013.7
2022-12-01T08:24:01.013Z,1013.7
2022-12-01T08:25:02.113Z,1013.7
2022-12-01T08:26:03.990Z,1013.7
2022-12-01T08:27:05.052Z,1013.6
2022-12-01T08:28:06.074Z,1013.6
2022-12-01T08:29:06.993Z,1013.6
2022-12-01T08:30:08.193Z,1013.6
2022-12-01T08:31:10.101Z,1013.6
2022-12-01T08:32:12.043Z,1013.5
2022-12-01T08:33:14.040Z,1013.6
2022-12-01T08:34:16.063Z,1013.6
2022-12-01T08:35:17.072Z,1013.6
2022-12-01T08:36:19.021Z,1013.6
2022-12-01T08:37:20.034Z,1013.7
2022-12-01T08:38:21.100Z,1013.7
2022-12-01T08:39:23.721Z,1013.7
2022-12-01T08:40:25.091Z,1013.7
2022-12-01T08:41:26.212Z,1013.6
2022-12-01T08:42:28.414Z,1013.7
2022-12-01T08:43:59.344Z,1013.6
2022-12-01T08:44:32.073Z,1013.6
2022-12-01T08:45:34.437Z,1013.6
2022-12-01T08:46:36.217Z,1013.6
2022-12-01T08:47:38.336Z,1013.6
2022-12-01T08:48:40.052Z,1013.6
2022-12-01T08:49:41.063Z,1013.6
2022-12-01T08:50:42.049Z,1013.6
2022-12-01T08:51:44.025Z,1013.6
2022-12-01T08:52:45.233Z,1013.6
2022-12-01T08:53:46.992Z,1013.6
2022-12-01T08:54:47.967Z,1013.7
2022-12-01T08:55:48.995Z,1013.7
2022-12-01T08:56:50.332Z,1013.7
2022-12-01T08:57:52.056Z,1013.7
2022-12-01T08:58:54.655Z,1013.7
2022-12-01T08:59:56.173Z,1013.7
2022-12-01T09:00:58.294Z,1013.7
2022-12-01T09:02:03.738Z,1013.7
2022-12-01T09:03:02.158Z,1013.7
2022-12-01T09:04:04.672Z,1013.7
2022-12-01T09:05:07.167Z,1013.7
2022-12-01T09:06:08.983Z,1013.6
2022-12-01T09:07:09.973Z,1013.6
2022-12-01T09:08:11.288Z,1013.7
2022-12-01T09:09:13.340Z,1013.7
2022-12-01T09:10:15.302Z,1013.7
2022-12-01T09:11:17.012Z,1013.8
2022-12-01T09:12:18.022Z,1013.8
2022-12-01T09:13:18.956Z,1013
2022-12-01T09:14:20.066Z,1013.5
2022-12-01T09:15:21.073Z,1013.6
2022-12-01T09:16:23.186Z,1013.7
2022-12-01T09:17:25.001Z,1013.7
2022-12-01T09:18:26.127Z,1013.6
2022-12-01T09:19:28.385Z,1013.6
2022-12-01T09:20:30.139Z,1013.6
2022-12-01T09:21:32.300Z,1013.6
2022-12-01T09:22:35.048Z,1013.6
2022-12-01T09:23:36.995Z,1013.6
2022-12-01T09:24:38.094Z,1013.7
2022-12-01T09:25:39.332Z,1013.7
2022-12-01T09:26:41.041Z,1013.7
2022-12-01T09:27:42.056Z,1013.7
2022-12-01T09:28:43.018Z,1013.7
2022-12-01T09:29:44.044Z,1013.7
2022-12-01T09:30:46.373Z,1013.7
2022-12-01T09:31:48.140Z,1013.7
2022-12-01T09:32:49.050Z,1013.6
2022-12-01T09:33:50.213Z,1013.7
2022-12-01T09:34:52.813Z,1013.6
2022-12-01T09:35:54.161Z,1013.6
2022-12-01T09:36:56.192Z,1013.7
2022-12-01T09:37:58.396Z,1013.6
2022-12-01T09:39:00.311Z,1013.6
2022-12-01T09:40:02.172Z,1013.5
2022-12-01T09:41:05.213Z,1013.4
2022-12-01T09:42:08.957Z,1013.6
2022-12-01T09:43:09.114Z,1013.5
2022-12-01T09:44:11.013Z,1013.6
2022-12-01T09:45:12.677Z,1013.5
2022-12-01T09:46:14.159Z,1013.5
2022-12-01T09:47:16.113Z,1013.5
2022-12-01T09:48:18.072Z,1013.5
2022-12-01T09:49:19.076Z,1013.6
2022-12-01T09:50:20.145Z,1013.5
2022-12-01T09:51:22.322Z,1013.4
2022-12-01T09:52:24.221Z,1013.5
2022-12-01T09:53:26.082Z,1013.5
2022-12-01T09:54:27.133Z,1013.5
2022-12-01T09:55:29.350Z,1013.4
2022-12-01T09:56:33.395Z,1013.4
2022-12-01T09:57:35.324Z,1013.5
2022-12-01T09:58:37.732Z,1013.4
2022-12-01T09:59:39.007Z,1013.4
2022-12-01T10:00:40.247Z,1013.4
2022-12-01T10:01:42.531Z,1013.4
2022-12-01T10:02:44.078Z,1013.4
2022-12-01T10:03:47.168Z,1013.4
2022-12-01T10:04:47.967Z,1013.4
2022-12-01T10:06:18.322Z,1013.3
2022-12-01T10:06:50.091Z,1013.3
2022-12-01T10:07:51.169Z,1013.3
2022-12-01T10:08:53.162Z,1013.3
2022-12-01T10:09:55.180Z,1013.3
2022-12-01T10:10:57.093Z,1013.2
2022-12-01T10:11:59.061Z,1013.3
2022-12-01T10:13:00.969Z,1013.3
2022-12-01T10:14:03.392Z,1013.3
2022-12-01T10:15:05.478Z,1013.3
2022-12-01T10:16:08.383Z,1013.3
2022-12-01T10:17:10.193Z,1013.3
2022-12-01T10:18:12.912Z,1013.3
2022-12-01T10:19:14.282Z,1013.3
2022-12-01T10:20:17.262Z,1013.3
2022-12-01T10:21:19.113Z,1013.3
2022-12-01T10:22:21.096Z,1013.3
2022-12-01T10:23:23.434Z,1013.3
2022-12-01T10:24:25.353Z,1013.2
2022-12-01T10:25:27.697Z,1013.2
2022-12-01T10:26:29.117Z,1013.2
2022-12-01T10:27:31.072Z,1013.2
2022-12-01T10:28:33.056Z,1013.3
2022-12-01T10:29:34.075Z,1013.4
2022-12-01T10:30:35.392Z,1013.3
2022-12-01T10:31:37.262Z,1012.6
2022-12-01T10:32:39.190Z,1013.1
2022-12-01T10:33:41.233Z,1013.2
2022-12-01T10:34:43.133Z,1013.2
2022-12-01T10:35:45.334Z,1013.2
2022-12-01T10:36:47.091Z,1013.2
2022-12-01T10:37:48.299Z,1013.1
2022-12-01T10:38:50.313Z,1013.1
2022-12-01T10:39:52.734Z,1013.1
2022-12-01T10:40:54.134Z,1013.1
2022-12-01T10:41:55.033Z,1013.1
2022-12-01T10:42:56.110Z,1013.1
2022-12-01T10:43:58.563Z,1013.1
2022-12-01T10:45:00.272Z,1013.1
2022-12-01T10:46:02.148Z,1013.1
2022-12-01T10:47:04.016Z,1013.1
2022-12-01T10:48:05.173Z,1013.1
2022-12-01T10:49:07.104Z,1013.2
2022-12-01T10:50:08.237Z,1013.1
2022-12-01T10:51:10.653Z,1013.1
2022-12-01T10:52:12.494Z,1013.1
2022-12-01T10:53:14.550Z,1013.1
2022-12-01T10:54:16.073Z,1013.1
2022-12-01T10:55:17.192Z,1013.2
2022-12-01T10:56:19.092Z,1013.1
2022-12-01T10:57:21.093Z,1013.1
2022-12-01T10:58:22.072Z,1013.1
2022-12-01T10:59:23.193Z,1013.1
2022-12-01T11:00:57.807Z,1013.1
2022-12-01T11:01:27.237Z,1013.1
2022-12-01T11:02:29.371Z,1013.1
2022-12-01T11:03:31.292Z,1013.1
2022-12-01T11:04:32.132Z,1013
2022-12-01T11:05:34.153Z,1013
2022-12-01T11:06:36.220Z,1013.1
2022-12-01T11:07:38.069Z,1013
2022-12-01T11:08:39.363Z,1013.1
2022-12-01T11:09:41.113Z,1013
2022-12-01T11:10:43.173Z,1013
2022-12-01T11:11:45.974Z,1013
2022-12-01T11:12:47.173Z,1013
2022-12-01T11:13:49.084Z,1013
2022-12-01T11:14:50.063Z,1013
2022-12-01T11:15:51.120Z,1013
2022-12-01T11:16:52.114Z,1013
2022-12-01T11:17:53.548Z,1013
2022-12-01T11:18:55.327Z,1013
2022-12-01T11:19:57.214Z,1013
2022-12-01T11:20:59.113Z,1013
2022-12-01T11:22:03.313Z,1013
2022-12-01T11:23:05.233Z,1013
2022-12-01T11:24:07.148Z,1013.1
2022-12-01T11:25:08.178Z,1012.9
2022-12-01T11:26:10.133Z,1012.9
2022-12-01T11:27:11.040Z,1012.9
2022-12-01T11:28:12.154Z,1012.9
2022-12-01T11:29:14.113Z,1013
2022-12-01T11:30:15.194Z,1012.6
2022-12-01T11:31:17.454Z,1012.8
2022-12-01T11:32:19.158Z,1012.9
2022-12-01T11:33:21.454Z,1012.9
2022-12-01T11:34:23.079Z,1012.9
2022-12-01T11:35:24.159Z,1013
2022-12-01T11:36:25.374Z,1013.1
2022-12-01T11:37:27.107Z,1012.9
2022-12-01T11:38:30.022Z,1013
2022-12-01T11:39:30.400Z,1013
2022-12-01T11:40:32.532Z,1012.7
2022-12-01T11:41:34.175Z,1012.9
2022-12-01T11:42:36.173Z,1012.9
2022-12-01T11:43:38.085Z,1012.9
2022-12-01T11:44:55.545Z,1012.9
2022-12-01T11:45:42.324Z,1013
2022-12-01T11:46:50.261Z,1013
2022-12-01T11:47:46.085Z,1013
2022-12-01T11:48:47.173Z,1012.5
2022-12-01T11:49:49.450Z,1012.8
2022-12-01T11:50:51.233Z,1012.9
2022-12-01T11:51:53.113Z,1012.9
2022-12-01T11:52:55.324Z,1013
2022-12-01T11:53:57.813Z,1013
2022-12-01T11:54:59.544Z,1013
2022-12-01T11:56:01.348Z,1012.9
2022-12-01T11:57:32.213Z,1012.9
2022-12-01T11:58:05.153Z,1012.9
2022-12-01T11:59:06.093Z,1012.9
2022-12-01T12:00:07.833Z,1012.9
2022-12-01T12:01:09.534Z,1012.9
2022-12-01T12:02:11.353Z,1012.9
2022-12-01T12:03:13.264Z,1012.9
2022-12-01T12:04:15.155Z,1013
2022-12-01T12:05:17.150Z,1012.9
2022-12-01T12:06:39.290Z,1012.9
2022-12-01T12:07:20.300Z,1012.9
2022-12-01T12:08:22.117Z,1012.9
2022-12-01T12:09:23.080Z,1012.8
2022-12-01T12:10:24.313Z,1012.8
2022-12-01T12:11:26.095Z,1012.8
2022-12-01T12:12:27.172Z,1012.9
2022-12-01T12:13:29.235Z,1012.8
2022-12-01T12:14:31.092Z,1012.9
2022-12-01T12:15:32.639Z,1012.8
2022-12-01T12:16:34.404Z,1012.8
2022-12-01T12:17:36.354Z,1012.8
2022-12-01T12:18:38.352Z,1012.8
2022-12-01T12:20:00.321Z,1012.5
2022-12-01T12:20:42.071Z,1012.8
2022-12-01T12:21:43.542Z,1012.9
2022-12-01T12:22:45.314Z,1012.9
2022-12-01T12:23:46.272Z,1012.9
2022-12-01T12:24:48.273Z,1012.8
2022-12-01T12:25:50.580Z,1012.8
2022-12-01T12:26:52.144Z,1012.8
2022-12-01T12:27:54.194Z,1012.9
2022-12-01T12:28:56.615Z,1012.9
2022-12-01T12:29:58.222Z,1012.5
2022-12-01T12:31:00.453Z,1012.8
2022-12-01T12:32:02.222Z,1012.9
2022-12-01T12:33:04.293Z,1012.8
2022-12-01T12:34:06.175Z,1012.8
2022-12-01T12:35:08.214Z,1012.8
2022-12-01T12:36:10.502Z,1012.8
2022-12-01T12:37:12.133Z,1012.8
2022-12-01T12:38:13.233Z,1012.8
2022-12-01T12:39:16.871Z,1012.8
2022-12-01T12:40:17.531Z,1012.5
2022-12-01T12:41:19.450Z,1012.7
2022-12-01T12:42:21.112Z,1012.8
2022-12-01T12:43:22.398Z,1012.9
2022-12-01T12:44:24.293Z,1012.9
2022-12-01T12:45:26.518Z,1012.9
2022-12-01T12:46:28.548Z,1012.8
2022-12-01T12:47:30.092Z,1012.9
2022-12-01T12:49:03.818Z,1012.8
2022-12-01T12:49:48.187Z,1012.8
2022-12-01T12:50:49.133Z,1012.8
2022-12-01T12:51:50.155Z,1012.8
2022-12-01T12:52:51.096Z,1012.9
2022-12-01T12:53:52.144Z,1012.9
2022-12-01T12:54:54.253Z,1012.8
2022-12-01T12:55:56.286Z,1012.8
2022-12-01T12:56:58.437Z,1012.8